sensor_id;sensor_type;location;lat;lon;timestamp;P1;durP1;ratioP1;P2;durP2;ratioP2
1879;SDS011;49285;49.002;8.390;2023-12-20T00:00:37;8.33;;;4.87;;
1879;SDS011;49285;49.002;8.390;2023-12-20T00:03:03;6.60;;;4.20;;
1879;SDS011;49285;49.002;8.390;2023-12-20T00:05:29;6.30;;;5.07;;
1879;SDS011;49285;49.002;8.390;2023-12-20T00:07:57;10.60;;;5.97;;
1879;SDS011;49285;49.002;8.390;2023-12-20T00:10:22;9.63;;;5.70;;
1879;SDS011;49285;49.002;8.390;2023-12-20T00:12:48;9.73;;;5.90;;
1879;SDS011;49285;49.002;8.390;2023-12-20T00:15:14;7.80;;;4.90;;
1879;SDS011;49285;49.002;8.390;2023-12-20T00:17:39;8.90;;;5.90;;
1879;SDS011;49285;49.002;8.390;2023-12-20T00:20:05;7.97;;;5.70;;
1879;SDS011;49285;49.002;8.390;2023-12-20T00:22:31;9.30;;;5.77;;
1879;SDS011;49285;49.002;8.390;2023-12-20T00:24:57;8.73;;;5.40;;
1879;SDS011;49285;49.002;8.390;2023-12-20T00:27:22;10.50;;;5.50;;
1879;SDS011;49285;49.002;8.390;2023-12-20T00:29:48;5.90;;;4.50;;
1879;SDS011;49285;49.002;8.390;2023-12-20T00:32:15;6.60;;;4.53;;
1879;SDS011;49285;49.002;8.390;2023-12-20T00:34:41;6.33;;;5.20;;
1879;SDS011;49285;49.002;8.390;2023-12-20T00:37:06;8.33;;;4.90;;
1879;SDS011;49285;49.002;8.390;2023-12-20T00:39:32;8.30;;;5.40;;
1879;SDS011;49285;49.002;8.390;2023-12-20T00:41:58;7.20;;;5.07;;
1879;SDS011;49285;49.002;8.390;2023-12-20T00:44:23;7.50;;;4.87;;
1879;SDS011;49285;49.002;8.390;2023-12-20T00:46:49;8.03;;;5.20;;
1879;SDS011;49285;49.002;8.390;2023-12-20T00:49:14;7.00;;;5.10;;
1879;SDS011;49285;49.002;8.390;2023-12-20T00:51:40;7.43;;;5.17;;
1879;SDS011;49285;49.002;8.390;2023-12-20T00:54:05;8.13;;;6.10;;
1879;SDS011;49285;49.002;8.390;2023-12-20T00:56:31;9.33;;;5.93;;
1879;SDS011;49285;49.002;8.390;2023-12-20T00:58:56;6.00;;;5.30;;
1879;SDS011;49285;49.002;8.390;2023-12-20T01:01:22;7.50;;;5.60;;
1879;SDS011;49285;49.002;8.390;2023-12-20T01:03:47;7.73;;;5.20;;
1879;SDS011;49285;49.002;8.390;2023-12-20T01:06:16;7.67;;;5.33;;
1879;SDS011;49285;49.002;8.390;2023-12-20T01:08:41;10.10;;;6.83;;
1879;SDS011;49285;49.002;8.390;2023-12-20T01:11:07;7.67;;;5.90;;
1879;SDS011;49285;49.002;8.390;2023-12-20T01:13:32;7.37;;;5.90;;
1879;SDS011;49285;49.002;8.390;2023-12-20T01:15:58;7.23;;;5.60;;
1879;SDS011;49285;49.002;8.390;2023-12-20T01:18:24;9.70;;;5.90;;
1879;SDS011;49285;49.002;8.390;2023-12-20T01:20:49;6.33;;;5.40;;
1879;SDS011;49285;49.002;8.390;2023-12-20T01:23:15;6.50;;;5.73;;
1879;SDS011;49285;49.002;8.390;2023-12-20T01:25:40;9.20;;;5.57;;
1879;SDS011;49285;49.002;8.390;2023-12-20T01:28:06;7.20;;;5.70;;
1879;SDS011;49285;49.002;8.390;2023-12-20T01:30:31;9.00;;;6.00;;
1879;SDS011;49285;49.002;8.390;2023-12-20T01:32:57;7.10;;;5.07;;
1879;SDS011;49285;49.002;8.390;2023-12-20T01:35:24;9.20;;;6.37;;
1879;SDS011;49285;49.002;8.390;2023-12-20T01:37:50;7.40;;;5.80;;
1879;SDS011;49285;49.002;8.390;2023-12-20T01:40:15;9.50;;;6.70;;
1879;SDS011;49285;49.002;8.390;2023-12-20T01:42:41;6.97;;;5.90;;
1879;SDS011;49285;49.002;8.390;2023-12-20T01:45:07;6.83;;;5.80;;
1879;SDS011;49285;49.002;8.390;2023-12-20T01:47:33;7.23;;;5.23;;
1879;SDS011;49285;49.002;8.390;2023-12-20T01:49:59;7.90;;;6.20;;
1879;SDS011;49285;49.002;8.390;2023-12-20T01:52:25;8.67;;;6.00;;
1879;SDS011;49285;49.002;8.390;2023-12-20T01:54:51;7.60;;;5.90;;
1879;SDS011;49285;49.002;8.390;2023-12-20T01:57:19;8.43;;;5.40;;
1879;SDS011;49285;49.002;8.390;2023-12-20T01:59:45;9.17;;;6.30;;
1879;SDS011;49285;49.002;8.390;2023-12-20T02:02:11;7.23;;;5.53;;
1879;SDS011;49285;49.002;8.390;2023-12-20T02:04:37;8.67;;;6.43;;
1879;SDS011;49285;49.002;8.390;2023-12-20T02:07:03;7.47;;;5.90;;
1879;SDS011;49285;49.002;8.390;2023-12-20T02:09:29;6.60;;;5.27;;
1879;SDS011;49285;49.002;8.390;2023-12-20T02:11:55;7.27;;;5.27;;
1879;SDS011;49285;49.002;8.390;2023-12-20T02:14:21;6.27;;;5.00;;
1879;SDS011;49285;49.002;8.390;2023-12-20T02:16:46;6.70;;;5.00;;
1879;SDS011;49285;49.002;8.390;2023-12-20T02:19:13;7.63;;;5.10;;
1879;SDS011;49285;49.002;8.390;2023-12-20T02:21:40;6.10;;;5.00;;
1879;SDS011;49285;49.002;8.390;2023-12-20T02:24:06;7.37;;;5.63;;
1879;SDS011;49285;49.002;8.390;2023-12-20T02:26:32;8.03;;;5.97;;
1879;SDS011;49285;49.002;8.390;2023-12-20T02:28:58;8.03;;;5.47;;
1879;SDS011;49285;49.002;8.390;2023-12-20T02:31:24;7.37;;;5.80;;
1879;SDS011;49285;49.002;8.390;2023-12-20T02:33:49;10.63;;;6.50;;
1879;SDS011;49285;49.002;8.390;2023-12-20T02:36:15;7.20;;;5.83;;
1879;SDS011;49285;49.002;8.390;2023-12-20T02:38:41;7.33;;;6.13;;
1879;SDS011;49285;49.002;8.390;2023-12-20T02:41:06;13.23;;;6.53;;
1879;SDS011;49285;49.002;8.390;2023-12-20T02:43:35;5.37;;;4.87;;
1879;SDS011;49285;49.002;8.390;2023-12-20T02:46:00;7.13;;;5.63;;
1879;SDS011;49285;49.002;8.390;2023-12-20T02:48:26;6.73;;;5.60;;
1879;SDS011;49285;49.002;8.390;2023-12-20T02:50:51;7.20;;;5.77;;
1879;SDS011;49285;49.002;8.390;2023-12-20T02:53:17;7.93;;;5.40;;
1879;SDS011;49285;49.002;8.390;2023-12-20T02:55:43;6.13;;;5.40;;
1879;SDS011;49285;49.002;8.390;2023-12-20T02:58:08;6.67;;;5.37;;
1879;SDS011;49285;49.002;8.390;2023-12-20T03:00:34;6.23;;;5.53;;
1879;SDS011;49285;49.002;8.390;2023-12-20T03:02:59;5.87;;;4.63;;
1879;SDS011;49285;49.002;8.390;2023-12-20T03:05:25;6.77;;;5.37;;
1879;SDS011;49285;49.002;8.390;2023-12-20T03:07:50;6.50;;;5.50;;
1879;SDS011;49285;49.002;8.390;2023-12-20T03:10:16;7.20;;;5.73;;
1879;SDS011;49285;49.002;8.390;2023-12-20T03:12:43;6.90;;;5.43;;
1879;SDS011;49285;49.002;8.390;2023-12-20T03:15:09;6.40;;;5.10;;
1879;SDS011;49285;49.002;8.390;2023-12-20T03:17:36;6.63;;;5.07;;
1879;SDS011;49285;49.002;8.390;2023-12-20T03:20:02;7.90;;;5.67;;
1879;SDS011;49285;49.002;8.390;2023-12-20T03:22:27;7.90;;;5.33;;
1879;SDS011;49285;49.002;8.390;2023-12-20T03:24:53;8.20;;;6.03;;
1879;SDS011;49285;49.002;8.390;2023-12-20T03:27:18;7.63;;;5.07;;
1879;SDS011;49285;49.002;8.390;2023-12-20T03:29:44;7.23;;;4.90;;
1879;SDS011;49285;49.002;8.390;2023-12-20T03:32:09;6.00;;;5.00;;
1879;SDS011;49285;49.002;8.390;2023-12-20T03:34:35;7.53;;;5.47;;
1879;SDS011;49285;49.002;8.390;2023-12-20T03:37:00;6.90;;;5.17;;
1879;SDS011;49285;49.002;8.390;2023-12-20T03:39:26;7.30;;;5.60;;
1879;SDS011;49285;49.002;8.390;2023-12-20T03:41:51;5.40;;;4.30;;
1879;SDS011;49285;49.002;8.390;2023-12-20T03:44:17;4.83;;;4.30;;
1879;SDS011;49285;49.002;8.390;2023-12-20T03:46:43;5.67;;;4.30;;
1879;SDS011;49285;49.002;8.390;2023-12-20T03:49:08;5.63;;;4.37;;
1879;SDS011;49285;49.002;8.390;2023-12-20T03:51:34;10.93;;;5.00;;
1879;SDS011;49285;49.002;8.390;2023-12-20T03:53:59;8.00;;;4.50;;
1879;SDS011;49285;49.002;8.390;2023-12-20T03:56:25;5.20;;;3.90;;
1879;SDS011;49285;49.002;8.390;2023-12-20T03:58:50;6.00;;;5.10;;
1879;SDS011;49285;49.002;8.390;2023-12-20T04:01:16;6.87;;;5.27;;
1879;SDS011;49285;49.002;8.390;2023-12-20T04:03:41;5.83;;;4.73;;
1879;SDS011;49285;49.002;8.390;2023-12-20T04:06:07;5.30;;;4.40;;
1879;SDS011;49285;49.002;8.390;2023-12-20T04:08:32;4.73;;;4.10;;
1879;SDS011;49285;49.002;8.390;2023-12-20T04:10:58;5.93;;;4.10;;
1879;SDS011;49285;49.002;8.390;2023-12-20T04:13:24;6.33;;;4.47;;
1879;SDS011;49285;49.002;8.390;2023-12-20T04:15:49;5.97;;;4.97;;
1879;SDS011;49285;49.002;8.390;2023-12-20T04:18:16;5.37;;;4.27;;
1879;SDS011;49285;49.002;8.390;2023-12-20T04:20:41;4.60;;;3.37;;
1879;SDS011;49285;49.002;8.390;2023-12-20T04:23:07;6.17;;;4.77;;
1879;SDS011;49285;49.002;8.390;2023-12-20T04:25:32;6.40;;;4.40;;
1879;SDS011;49285;49.002;8.390;2023-12-20T04:27:58;5.20;;;4.00;;
1879;SDS011;49285;49.002;8.390;2023-12-20T04:30:23;6.93;;;4.37;;
1879;SDS011;49285;49.002;8.390;2023-12-20T04:32:49;6.93;;;4.63;;
1879;SDS011;49285;49.002;8.390;2023-12-20T04:35:14;5.67;;;3.97;;
1879;SDS011;49285;49.002;8.390;2023-12-20T04:37:40;4.83;;;3.70;;
1879;SDS011;49285;49.002;8.390;2023-12-20T04:40:06;5.10;;;4.00;;
1879;SDS011;49285;49.002;8.390;2023-12-20T04:42:33;5.00;;;3.80;;
1879;SDS011;49285;49.002;8.390;2023-12-20T04:44:58;5.03;;;4.20;;
1879;SDS011;49285;49.002;8.390;2023-12-20T04:47:24;4.70;;;3.83;;
1879;SDS011;49285;49.002;8.390;2023-12-20T04:49:49;5.13;;;4.30;;
1879;SDS011;49285;49.002;8.390;2023-12-20T04:52:15;5.37;;;4.63;;
1879;SDS011;49285;49.002;8.390;2023-12-20T04:54:40;5.20;;;4.27;;
1879;SDS011;49285;49.002;8.390;2023-12-20T04:57:06;5.27;;;4.10;;
1879;SDS011;49285;49.002;8.390;2023-12-20T04:59:31;5.10;;;4.47;;
1879;SDS011;49285;49.002;8.390;2023-12-20T05:01:57;6.60;;;3.93;;
1879;SDS011;49285;49.002;8.390;2023-12-20T05:04:23;6.30;;;4.30;;
1879;SDS011;49285;49.002;8.390;2023-12-20T05:06:49;5.20;;;4.33;;
1879;SDS011;49285;49.002;8.390;2023-12-20T05:09:15;6.40;;;4.57;;
1879;SDS011;49285;49.002;8.390;2023-12-20T05:11:41;6.33;;;4.00;;
1879;SDS011;49285;49.002;8.390;2023-12-20T05:14:06;6.50;;;4.17;;
1879;SDS011;49285;49.002;8.390;2023-12-20T05:16:32;5.60;;;5.00;;
1879;SDS011;49285;49.002;8.390;2023-12-20T05:18:57;5.90;;;4.83;;
1879;SDS011;49285;49.002;8.390;2023-12-20T05:21:25;4.93;;;4.10;;
1879;SDS011;49285;49.002;8.390;2023-12-20T05:23:51;6.27;;;4.40;;
1879;SDS011;49285;49.002;8.390;2023-12-20T05:26:17;6.10;;;4.70;;
1879;SDS011;49285;49.002;8.390;2023-12-20T05:28:42;6.23;;;4.87;;
1879;SDS011;49285;49.002;8.390;2023-12-20T05:31:08;5.87;;;4.30;;
1879;SDS011;49285;49.002;8.390;2023-12-20T05:33:34;7.50;;;4.90;;
1879;SDS011;49285;49.002;8.390;2023-12-20T05:35:59;8.40;;;5.57;;
1879;SDS011;49285;49.002;8.390;2023-12-20T05:38:25;6.47;;;5.13;;
1879;SDS011;49285;49.002;8.390;2023-12-20T05:40:51;7.20;;;4.83;;
1879;SDS011;49285;49.002;8.390;2023-12-20T05:43:16;7.97;;;5.10;;
1879;SDS011;49285;49.002;8.390;2023-12-20T05:45:42;6.97;;;5.57;;
1879;SDS011;49285;49.002;8.390;2023-12-20T05:48:07;8.00;;;5.70;;
1879;SDS011;49285;49.002;8.390;2023-12-20T05:50:33;5.17;;;4.40;;
1879;SDS011;49285;49.002;8.390;2023-12-20T05:52:59;5.27;;;4.47;;
1879;SDS011;49285;49.002;8.390;2023-12-20T05:55:25;7.73;;;4.80;;
1879;SDS011;49285;49.002;8.390;2023-12-20T05:57:51;5.60;;;4.77;;
1879;SDS011;49285;49.002;8.390;2023-12-20T06:00:16;6.40;;;4.67;;
1879;SDS011;49285;49.002;8.390;2023-12-20T06:02:42;7.43;;;5.20;;
1879;SDS011;49285;49.002;8.390;2023-12-20T06:05:08;5.90;;;4.83;;
1879;SDS011;49285;49.002;8.390;2023-12-20T06:07:34;5.30;;;4.80;;
1879;SDS011;49285;49.002;8.390;2023-12-20T06:10:00;6.43;;;4.77;;
1879;SDS011;49285;49.002;8.390;2023-12-20T06:12:25;5.53;;;4.70;;
1879;SDS011;49285;49.002;8.390;2023-12-20T06:14:57;5.80;;;4.63;;
1879;SDS011;49285;49.002;8.390;2023-12-20T06:17:22;6.50;;;4.70;;
1879;SDS011;49285;49.002;8.390;2023-12-20T06:19:48;6.37;;;4.70;;
1879;SDS011;49285;49.002;8.390;2023-12-20T06:22:14;7.30;;;5.10;;
1879;SDS011;49285;49.002;8.390;2023-12-20T06:24:40;6.90;;;4.50;;
1879;SDS011;49285;49.002;8.390;2023-12-20T06:27:06;4.60;;;4.03;;
1879;SDS011;49285;49.002;8.390;2023-12-20T06:29:31;5.90;;;4.70;;
1879;SDS011;49285;49.002;8.390;2023-12-20T06:31:57;6.80;;;5.33;;
1879;SDS011;49285;49.002;8.390;2023-12-20T06:34:22;6.80;;;4.30;;
1879;SDS011;49285;49.002;8.390;2023-12-20T06:36:48;4.83;;;4.33;;
1879;SDS011;49285;49.002;8.390;2023-12-20T06:39:13;4.63;;;4.10;;
1879;SDS011;49285;49.002;8.390;2023-12-20T06:41:39;5.27;;;4.03;;
1879;SDS011;49285;49.002;8.390;2023-12-20T06:44:05;5.90;;;4.57;;
1879;SDS011;49285;49.002;8.390;2023-12-20T06:46:31;5.77;;;3.80;;
1879;SDS011;49285;49.002;8.390;2023-12-20T06:48:56;5.23;;;4.10;;
1879;SDS011;49285;49.002;8.390;2023-12-20T06:51:22;7.10;;;4.43;;
1879;SDS011;49285;49.002;8.390;2023-12-20T06:53:50;5.80;;;3.93;;
1879;SDS011;49285;49.002;8.390;2023-12-20T06:56:16;4.43;;;4.00;;
1879;SDS011;49285;49.002;8.390;2023-12-20T06:58:42;4.90;;;3.73;;
1879;SDS011;49285;49.002;8.390;2023-12-20T07:01:11;4.33;;;3.70;;
1879;SDS011;49285;49.002;8.390;2023-12-20T07:03:37;4.87;;;3.53;;
1879;SDS011;49285;49.002;8.390;2023-12-20T07:06:04;4.53;;;3.60;;
1879;SDS011;49285;49.002;8.390;2023-12-20T07:08:29;4.73;;;3.63;;
1879;SDS011;49285;49.002;8.390;2023-12-20T07:10:55;9.40;;;3.70;;
1879;SDS011;49285;49.002;8.390;2023-12-20T07:13:20;4.97;;;4.23;;
1879;SDS011;49285;49.002;8.390;2023-12-20T07:15:47;4.43;;;3.83;;
1879;SDS011;49285;49.002;8.390;2023-12-20T07:18:13;7.00;;;4.50;;
1879;SDS011;49285;49.002;8.390;2023-12-20T07:20:38;5.70;;;3.80;;
1879;SDS011;49285;49.002;8.390;2023-12-20T07:23:04;5.87;;;4.37;;
1879;SDS011;49285;49.002;8.390;2023-12-20T07:25:29;5.30;;;4.50;;
1879;SDS011;49285;49.002;8.390;2023-12-20T07:27:57;5.53;;;4.00;;
1879;SDS011;49285;49.002;8.390;2023-12-20T07:30:23;4.83;;;4.20;;
1879;SDS011;49285;49.002;8.390;2023-12-20T07:32:49;5.23;;;4.37;;
1879;SDS011;49285;49.002;8.390;2023-12-20T07:35:17;6.83;;;5.00;;
1879;SDS011;49285;49.002;8.390;2023-12-20T07:37:43;5.40;;;4.90;;
1879;SDS011;49285;49.002;8.390;2023-12-20T07:40:09;5.60;;;4.30;;
1879;SDS011;49285;49.002;8.390;2023-12-20T07:42:35;6.57;;;4.70;;
1879;SDS011;49285;49.002;8.390;2023-12-20T07:45:00;7.63;;;4.30;;
1879;SDS011;49285;49.002;8.390;2023-12-20T07:47:26;5.23;;;4.33;;
1879;SDS011;49285;49.002;8.390;2023-12-20T07:49:51;6.40;;;4.50;;
1879;SDS011;49285;49.002;8.390;2023-12-20T07:52:17;5.63;;;5.00;;
1879;SDS011;49285;49.002;8.390;2023-12-20T07:54:44;7.30;;;5.27;;
1879;SDS011;49285;49.002;8.390;2023-12-20T07:57:10;5.53;;;4.67;;
1879;SDS011;49285;49.002;8.390;2023-12-20T07:59:36;5.90;;;4.40;;
1879;SDS011;49285;49.002;8.390;2023-12-20T08:02:02;4.63;;;4.13;;
1879;SDS011;49285;49.002;8.390;2023-12-20T08:04:27;4.80;;;3.93;;
1879;SDS011;49285;49.002;8.390;2023-12-20T08:06:53;7.27;;;4.33;;
1879;SDS011;49285;49.002;8.390;2023-12-20T08:09:19;5.10;;;4.30;;
1879;SDS011;49285;49.002;8.390;2023-12-20T08:11:45;6.03;;;4.63;;
1879;SDS011;49285;49.002;8.390;2023-12-20T08:14:11;5.53;;;4.33;;
1879;SDS011;49285;49.002;8.390;2023-12-20T08:16:37;4.67;;;4.17;;
1879;SDS011;49285;49.002;8.390;2023-12-20T08:19:02;5.50;;;4.03;;
1879;SDS011;49285;49.002;8.390;2023-12-20T08:21:28;6.40;;;4.53;;
1879;SDS011;49285;49.002;8.390;2023-12-20T08:23:53;5.77;;;4.17;;
1879;SDS011;49285;49.002;8.390;2023-12-20T08:26:19;5.23;;;4.20;;
1879;SDS011;49285;49.002;8.390;2023-12-20T08:28:46;4.40;;;4.00;;
1879;SDS011;49285;49.002;8.390;2023-12-20T08:31:15;4.70;;;4.07;;
1879;SDS011;49285;49.002;8.390;2023-12-20T08:33:42;4.00;;;3.20;;
1879;SDS011;49285;49.002;8.390;2023-12-20T08:36:09;4.50;;;3.73;;
1879;SDS011;49285;49.002;8.390;2023-12-20T08:38:35;4.80;;;3.53;;
1879;SDS011;49285;49.002;8.390;2023-12-20T08:41:01;3.77;;;2.90;;
1879;SDS011;49285;49.002;8.390;2023-12-20T08:43:28;4.50;;;3.03;;
1879;SDS011;49285;49.002;8.390;2023-12-20T08:45:53;4.27;;;2.60;;
1879;SDS011;49285;49.002;8.390;2023-12-20T08:48:19;11.27;;;3.30;;
1879;SDS011;49285;49.002;8.390;2023-12-20T08:50:44;6.70;;;3.37;;
1879;SDS011;49285;49.002;8.390;2023-12-20T08:53:10;5.20;;;4.10;;
1879;SDS011;49285;49.002;8.390;2023-12-20T08:55:36;5.23;;;2.90;;
1879;SDS011;49285;49.002;8.390;2023-12-20T08:58:02;4.63;;;2.93;;
1879;SDS011;49285;49.002;8.390;2023-12-20T09:00:28;8.93;;;3.10;;
1879;SDS011;49285;49.002;8.390;2023-12-20T09:02:54;7.00;;;3.53;;
1879;SDS011;49285;49.002;8.390;2023-12-20T09:05:20;3.70;;;2.30;;
1879;SDS011;49285;49.002;8.390;2023-12-20T09:07:46;4.03;;;2.40;;
1879;SDS011;49285;49.002;8.390;2023-12-20T09:10:11;5.40;;;2.60;;
1879;SDS011;49285;49.002;8.390;2023-12-20T09:12:37;6.53;;;3.60;;
1879;SDS011;49285;49.002;8.390;2023-12-20T09:15:05;4.50;;;2.80;;
1879;SDS011;49285;49.002;8.390;2023-12-20T09:17:30;3.60;;;2.70;;
1879;SDS011;49285;49.002;8.390;2023-12-20T09:19:56;4.97;;;3.20;;
1879;SDS011;49285;49.002;8.390;2023-12-20T09:22:22;6.67;;;3.17;;
1879;SDS011;49285;49.002;8.390;2023-12-20T09:24:48;5.10;;;2.27;;
1879;SDS011;49285;49.002;8.390;2023-12-20T09:27:13;3.70;;;2.77;;
1879;SDS011;49285;49.002;8.390;2023-12-20T09:29:39;5.20;;;2.97;;
1879;SDS011;49285;49.002;8.390;2023-12-20T09:32:04;4.23;;;3.30;;
1879;SDS011;49285;49.002;8.390;2023-12-20T09:34:30;4.00;;;2.63;;
1879;SDS011;49285;49.002;8.390;2023-12-20T09:36:56;3.83;;;2.80;;
1879;SDS011;49285;49.002;8.390;2023-12-20T09:39:21;8.50;;;3.67;;
1879;SDS011;49285;49.002;8.390;2023-12-20T09:42:01;5.40;;;3.17;;
1879;SDS011;49285;49.002;8.390;2023-12-20T09:44:28;4.83;;;3.10;;
1879;SDS011;49285;49.002;8.390;2023-12-20T09:46:54;9.30;;;3.27;;
1879;SDS011;49285;49.002;8.390;2023-12-20T09:49:21;6.23;;;3.07;;
1879;SDS011;49285;49.002;8.390;2023-12-20T09:51:47;6.37;;;3.60;;
1879;SDS011;49285;49.002;8.390;2023-12-20T09:54:19;4.83;;;3.17;;
1879;SDS011;49285;49.002;8.390;2023-12-20T09:56:45;7.00;;;3.33;;
1879;SDS011;49285;49.002;8.390;2023-12-20T09:59:11;4.20;;;2.97;;
1879;SDS011;49285;49.002;8.390;2023-12-20T10:01:38;7.00;;;3.07;;
1879;SDS011;49285;49.002;8.390;2023-12-20T10:04:05;7.27;;;3.27;;
1879;SDS011;49285;49.002;8.390;2023-12-20T10:06:35;6.33;;;3.30;;
1879;SDS011;49285;49.002;8.390;2023-12-20T10:09:01;4.23;;;2.87;;
1879;SDS011;49285;49.002;8.390;2023-12-20T10:11:27;5.40;;;2.63;;
1879;SDS011;49285;49.002;8.390;2023-12-20T10:13:58;6.40;;;3.10;;
1879;SDS011;49285;49.002;8.390;2023-12-20T10:16:27;5.53;;;2.87;;
1879;SDS011;49285;49.002;8.390;2023-12-20T10:18:53;8.03;;;3.60;;
1879;SDS011;49285;49.002;8.390;2023-12-20T10:21:19;5.40;;;3.30;;
1879;SDS011;49285;49.002;8.390;2023-12-20T10:23:46;7.63;;;3.00;;
1879;SDS011;49285;49.002;8.390;2023-12-20T10:29:06;3.83;;;2.90;;
1879;SDS011;49285;49.002;8.390;2023-12-20T10:31:32;10.23;;;3.83;;
1879;SDS011;49285;49.002;8.390;2023-12-20T10:34:00;6.13;;;3.03;;
1879;SDS011;49285;49.002;8.390;2023-12-20T10:36:27;9.00;;;2.73;;
1879;SDS011;49285;49.002;8.390;2023-12-20T10:38:55;4.80;;;3.00;;
1879;SDS011;49285;49.002;8.390;2023-12-20T10:41:27;4.70;;;2.77;;
1879;SDS011;49285;49.002;8.390;2023-12-20T10:44:03;4.63;;;3.20;;
1879;SDS011;49285;49.002;8.390;2023-12-20T10:46:33;7.20;;;3.90;;
1879;SDS011;49285;49.002;8.390;2023-12-20T10:48:59;6.03;;;3.40;;
1879;SDS011;49285;49.002;8.390;2023-12-20T10:51:27;7.40;;;3.63;;
1879;SDS011;49285;49.002;8.390;2023-12-20T10:53:55;4.67;;;3.10;;
1879;SDS011;49285;49.002;8.390;2023-12-20T10:56:21;10.53;;;3.73;;
1879;SDS011;49285;49.002;8.390;2023-12-20T10:58:49;9.30;;;3.83;;
1879;SDS011;49285;49.002;8.390;2023-12-20T11:01:15;8.03;;;3.50;;
1879;SDS011;49285;49.002;8.390;2023-12-20T11:03:52;6.90;;;3.97;;
1879;SDS011;49285;49.002;8.390;2023-12-20T11:11:56;10.33;;;3.63;;
1879;SDS011;49285;49.002;8.390;2023-12-20T11:17:05;6.33;;;3.50;;
1879;SDS011;49285;49.002;8.390;2023-12-20T11:22:21;4.80;;;3.40;;
1879;SDS011;49285;49.002;8.390;2023-12-20T11:24:47;10.30;;;3.30;;
1879;SDS011;49285;49.002;8.390;2023-12-20T11:27:13;8.27;;;3.70;;
1879;SDS011;49285;49.002;8.390;2023-12-20T11:29:39;7.00;;;3.90;;
1879;SDS011;49285;49.002;8.390;2023-12-20T11:32:48;5.70;;;3.33;;
1879;SDS011;49285;49.002;8.390;2023-12-20T11:37:36;8.67;;;3.10;;
1879;SDS011;49285;49.002;8.390;2023-12-20T11:40:03;5.67;;;3.30;;
1879;SDS011;49285;49.002;8.390;2023-12-20T11:42:38;6.37;;;2.93;;
1879;SDS011;49285;49.002;8.390;2023-12-20T11:45:05;7.47;;;3.40;;
1879;SDS011;49285;49.002;8.390;2023-12-20T11:47:50;6.40;;;2.77;;
1879;SDS011;49285;49.002;8.390;2023-12-20T11:50:17;10.40;;;4.57;;
1879;SDS011;49285;49.002;8.390;2023-12-20T11:52:43;5.03;;;3.33;;
1879;SDS011;49285;49.002;8.390;2023-12-20T11:55:09;8.67;;;3.10;;
1879;SDS011;49285;49.002;8.390;2023-12-20T11:57:35;7.43;;;3.53;;
1879;SDS011;49285;49.002;8.390;2023-12-20T12:00:01;9.40;;;3.80;;
1879;SDS011;49285;49.002;8.390;2023-12-20T12:02:28;11.77;;;4.23;;
1879;SDS011;49285;49.002;8.390;2023-12-20T12:04:53;8.63;;;3.40;;
1879;SDS011;49285;49.002;8.390;2023-12-20T12:07:20;7.80;;;3.30;;
1879;SDS011;49285;49.002;8.390;2023-12-20T12:09:46;9.87;;;3.70;;
1879;SDS011;49285;49.002;8.390;2023-12-20T12:12:12;6.90;;;3.20;;
1879;SDS011;49285;49.002;8.390;2023-12-20T12:14:38;6.10;;;2.80;;
1879;SDS011;49285;49.002;8.390;2023-12-20T12:17:09;6.00;;;3.10;;
1879;SDS011;49285;49.002;8.390;2023-12-20T12:19:39;9.73;;;3.57;;
1879;SDS011;49285;49.002;8.390;2023-12-20T12:22:05;5.50;;;3.40;;
1879;SDS011;49285;49.002;8.390;2023-12-20T12:24:41;5.10;;;3.20;;
1879;SDS011;49285;49.002;8.390;2023-12-20T12:27:11;7.03;;;3.30;;
1879;SDS011;49285;49.002;8.390;2023-12-20T12:29:37;11.43;;;3.07;;
1879;SDS011;49285;49.002;8.390;2023-12-20T12:32:07;6.97;;;2.90;;
1879;SDS011;49285;49.002;8.390;2023-12-20T12:34:34;7.50;;;3.27;;
1879;SDS011;49285;49.002;8.390;2023-12-20T12:37:00;13.00;;;4.90;;
1879;SDS011;49285;49.002;8.390;2023-12-20T12:39:26;8.60;;;5.00;;
1879;SDS011;49285;49.002;8.390;2023-12-20T12:41:52;5.70;;;2.80;;
1879;SDS011;49285;49.002;8.390;2023-12-20T12:44:19;14.93;;;4.20;;
1879;SDS011;49285;49.002;8.390;2023-12-20T12:46:45;8.33;;;3.73;;
1879;SDS011;49285;49.002;8.390;2023-12-20T12:49:11;6.53;;;2.97;;
1879;SDS011;49285;49.002;8.390;2023-12-20T12:51:37;6.40;;;3.40;;
1879;SDS011;49285;49.002;8.390;2023-12-20T12:54:03;15.37;;;5.90;;
1879;SDS011;49285;49.002;8.390;2023-12-20T12:56:28;10.70;;;3.47;;
1879;SDS011;49285;49.002;8.390;2023-12-20T12:58:54;9.87;;;3.37;;
1879;SDS011;49285;49.002;8.390;2023-12-20T13:01:20;5.83;;;3.33;;
1879;SDS011;49285;49.002;8.390;2023-12-20T13:03:45;7.50;;;3.20;;
1879;SDS011;49285;49.002;8.390;2023-12-20T13:06:12;5.10;;;2.43;;
1879;SDS011;49285;49.002;8.390;2023-12-20T13:08:38;8.43;;;3.00;;
1879;SDS011;49285;49.002;8.390;2023-12-20T13:11:04;9.77;;;3.37;;
1879;SDS011;49285;49.002;8.390;2023-12-20T13:13:29;7.83;;;3.70;;
1879;SDS011;49285;49.002;8.390;2023-12-20T13:15:56;8.83;;;3.30;;
1879;SDS011;49285;49.002;8.390;2023-12-20T13:18:24;8.33;;;3.20;;
1879;SDS011;49285;49.002;8.390;2023-12-20T13:20:50;5.20;;;2.70;;
1879;SDS011;49285;49.002;8.390;2023-12-20T13:23:16;6.13;;;3.07;;
1879;SDS011;49285;49.002;8.390;2023-12-20T13:25:43;8.50;;;2.90;;
1879;SDS011;49285;49.002;8.390;2023-12-20T13:28:10;7.30;;;3.37;;
1879;SDS011;49285;49.002;8.390;2023-12-20T13:30:36;7.67;;;3.10;;
1879;SDS011;49285;49.002;8.390;2023-12-20T13:33:01;5.40;;;3.40;;
1879;SDS011;49285;49.002;8.390;2023-12-20T13:35:27;7.80;;;3.27;;
1879;SDS011;49285;49.002;8.390;2023-12-20T13:37:53;10.23;;;3.63;;
1879;SDS011;49285;49.002;8.390;2023-12-20T13:40:18;9.10;;;3.17;;
1879;SDS011;49285;49.002;8.390;2023-12-20T13:42:44;13.80;;;5.20;;
1879;SDS011;49285;49.002;8.390;2023-12-20T13:45:10;5.00;;;2.60;;
1879;SDS011;49285;49.002;8.390;2023-12-20T13:47:36;6.30;;;3.37;;
1879;SDS011;49285;49.002;8.390;2023-12-20T13:50:02;10.50;;;3.80;;
1879;SDS011;49285;49.002;8.390;2023-12-20T13:52:29;7.50;;;2.80;;
1879;SDS011;49285;49.002;8.390;2023-12-20T13:54:54;6.70;;;2.70;;
1879;SDS011;49285;49.002;8.390;2023-12-20T13:57:20;7.30;;;2.93;;
1879;SDS011;49285;49.002;8.390;2023-12-20T13:59:45;9.07;;;3.00;;
1879;SDS011;49285;49.002;8.390;2023-12-20T14:02:11;13.70;;;3.30;;
1879;SDS011;49285;49.002;8.390;2023-12-20T14:04:37;13.90;;;3.73;;
1879;SDS011;49285;49.002;8.390;2023-12-20T14:07:04;6.67;;;2.77;;
1879;SDS011;49285;49.002;8.390;2023-12-20T14:09:30;10.20;;;3.30;;
1879;SDS011;49285;49.002;8.390;2023-12-20T14:11:55;8.13;;;3.20;;
1879;SDS011;49285;49.002;8.390;2023-12-20T14:14:21;7.77;;;3.97;;
1879;SDS011;49285;49.002;8.390;2023-12-20T14:16:46;10.77;;;4.10;;
1879;SDS011;49285;49.002;8.390;2023-12-20T14:19:12;5.50;;;2.60;;
1879;SDS011;49285;49.002;8.390;2023-12-20T14:21:37;8.57;;;2.90;;
1879;SDS011;49285;49.002;8.390;2023-12-20T14:24:03;10.37;;;3.17;;
1879;SDS011;49285;49.002;8.390;2023-12-20T14:26:29;13.10;;;4.73;;
1879;SDS011;49285;49.002;8.390;2023-12-20T14:28:56;7.03;;;3.30;;
1879;SDS011;49285;49.002;8.390;2023-12-20T14:31:21;13.40;;;3.13;;
1879;SDS011;49285;49.002;8.390;2023-12-20T14:33:49;8.13;;;3.03;;
1879;SDS011;49285;49.002;8.390;2023-12-20T14:36:15;8.47;;;3.67;;
1879;SDS011;49285;49.002;8.390;2023-12-20T14:38:45;6.30;;;3.07;;
1879;SDS011;49285;49.002;8.390;2023-12-20T14:41:12;5.27;;;2.90;;
1879;SDS011;49285;49.002;8.390;2023-12-20T14:43:37;8.50;;;2.60;;
1879;SDS011;49285;49.002;8.390;2023-12-20T14:46:06;12.50;;;3.30;;
1879;SDS011;49285;49.002;8.390;2023-12-20T14:48:31;11.53;;;5.03;;
1879;SDS011;49285;49.002;8.390;2023-12-20T14:50:58;14.37;;;3.17;;
1879;SDS011;49285;49.002;8.390;2023-12-20T14:53:24;8.23;;;2.90;;
1879;SDS011;49285;49.002;8.390;2023-12-20T14:55:50;8.73;;;2.30;;
1879;SDS011;49285;49.002;8.390;2023-12-20T14:58:16;5.33;;;3.33;;
1879;SDS011;49285;49.002;8.390;2023-12-20T15:00:42;9.73;;;3.47;;
1879;SDS011;49285;49.002;8.390;2023-12-20T15:03:08;15.10;;;3.50;;
1879;SDS011;49285;49.002;8.390;2023-12-20T15:05:34;8.60;;;4.50;;
1879;SDS011;49285;49.002;8.390;2023-12-20T15:08:00;7.30;;;3.30;;
1879;SDS011;49285;49.002;8.390;2023-12-20T15:10:26;9.00;;;3.57;;